TLPLTGPY

Guest
Details From TLPL - St. Lucia/Hewanorra Intl
To TGPY - Grenada/Bishop International
Flight Number -
Tags generated
Created
Modified
Stats Distance 115 nm / 213 km
Max Altitude 12,900 ft / 3,932 m
Waypoints 6
Social Downloads 1
Likes 0
Share VATSIM

Download

Looking for another format? Having issues loading an existing format? Contact us
Advertisement - Login to hide

Notes

Basic altitude profile: - Ascent Rate: 2500ft/min - Ascent Speed: 250kts - Cruise Altitude: 35000ft - Cruise Speed: 420kts - Descent Rate: 1500ft/min - Descent Speed: 250kts Options: - Use NATs: yes - Use PACOTS: yes - Use low airways: yes - Use high airways: yes

Route

TLPL RIBOR A324 GND TGPY

ID Type Via Altitude Latitude Longitude Leg Dist Tot Dist Heading (true) Name
O TLPL APT - 0 ft / 0 m 13.73319˚ -60.95260˚ - 0 nm - St. Lucia/Hewanorra Intl
RIBOR FIX - 8,300 ft / 2,530 m 13.38228˚ -61.12478˚ 23 nm 23 nm 206° / 205° -
SV NDB A324 (AWY-LO) 12,900 ft / 3,932 m 13.14064˚ -61.22617˚ 15 nm 39 nm 202° / 202° E.T. JOSHUA NDB
RESAS FIX A324 (AWY-LO) 8,100 ft / 2,469 m 12.56828˚ -61.50783˚ 38 nm 77 nm 206° / 206° -
GND VOR A324 (AWY-LO) 6,000 ft / 1,829 m 12.00128˚ -61.78544˚ 37 nm 114 nm 206° / 206° MAURICE BISHOP VOR-DME
O TGPY APT - 0 ft / 0 m 12.00425˚ -61.78619˚ 0 nm 115 nm 346° / 346° Grenada/Bishop International

Altitude Profile

Advertisement - Login to hide

TLPL

Details ICAO TLPL (UVF)
Name St. Lucia/Hewanorra Intl
Region Saint Lucia
Timezone America/St_Lucia (UTC-4.0)
Stats Elevation 14 ft / 4 m (AMSL)
Location 13.733194° -60.952599°
Runways 1
Magnetic Variation 15.092° W

METAR

TLPL 112300Z 01005KT 9999 FEW026 23/21 Q1011 NOSIG

Decode

TAF

Not found

Departure Runways

ID Width Length Bearing (true) Bearing (mag) Surface Threshold Offset Overrun Length
10 148 ft / 45 m 8,979 ft / 2,737 m 90.01° 105.10° Asphalt 0 ft / 0 m 200 ft / 61 m
28 148 ft / 45 m 8,979 ft / 2,737 m 270.01° 285.10° Asphalt 459 ft / 140 m 0 ft / 0 m

TGPY

Details ICAO TGPY (GND)
Name Grenada/Bishop International
Region Grenada
Timezone America/Grenada (UTC-4.0)
Stats Elevation 41 ft / 12 m (AMSL)
Location 12.004247° -61.786192°
Runways 1
Magnetic Variation 14.799° W

METAR

TGPY 112300Z 09005KT 9999 FEW020 25/22 Q1010 NOSIG

Decode

TAF

Not found

Destination Runways

ID Width Length Bearing (true) Bearing (mag) Surface Threshold Offset Overrun Length
10 148 ft / 45 m 9,012 ft / 2,747 m 90.26° 105.06° Asphalt 0 ft / 0 m 0 ft / 0 m
28 148 ft / 45 m 9,012 ft / 2,747 m 270.26° 285.06° Asphalt 0 ft / 0 m 0 ft / 0 m

Popular Alternatives